sensor_id;sensor_type;location;lat;lon;timestamp;temperature;humidity
6666;DHT22;3369;49.906;8.598;2022-10-20T00:01:26;10.20;99.90
6666;DHT22;3369;49.906;8.598;2022-10-20T00:03:54;10.20;99.90
6666;DHT22;3369;49.906;8.598;2022-10-20T00:06:30;10.10;99.90
6666;DHT22;3369;49.906;8.598;2022-10-20T00:08:58;10.10;99.90
6666;DHT22;3369;49.906;8.598;2022-10-20T00:11:25;10.00;99.90
6666;DHT22;3369;49.906;8.598;2022-10-20T00:13:52;10.00;99.90
6666;DHT22;3369;49.906;8.598;2022-10-20T00:16:20;10.00;99.90
6666;DHT22;3369;49.906;8.598;2022-10-20T00:18:46;10.00;99.90
6666;DHT22;3369;49.906;8.598;2022-10-20T00:21:14;10.00;99.90
6666;DHT22;3369;49.906;8.598;2022-10-20T00:23:40;10.00;99.90
6666;DHT22;3369;49.906;8.598;2022-10-20T00:26:08;10.00;99.90
6666;DHT22;3369;49.906;8.598;2022-10-20T00:28:35;9.90;99.90
6666;DHT22;3369;49.906;8.598;2022-10-20T00:31:01;9.90;99.90
6666;DHT22;3369;49.906;8.598;2022-10-20T00:33:26;9.90;99.90
6666;DHT22;3369;49.906;8.598;2022-10-20T00:35:52;9.90;99.90
6666;DHT22;3369;49.906;8.598;2022-10-20T00:38:18;9.90;99.90
6666;DHT22;3369;49.906;8.598;2022-10-20T00:40:44;9.90;99.90
6666;DHT22;3369;49.906;8.598;2022-10-20T00:43:14;9.80;99.90
6666;DHT22;3369;49.906;8.598;2022-10-20T00:45:41;9.80;99.90
6666;DHT22;3369;49.906;8.598;2022-10-20T00:48:14;9.70;99.90
6666;DHT22;3369;49.906;8.598;2022-10-20T00:50:48;9.70;99.90
6666;DHT22;3369;49.906;8.598;2022-10-20T00:53:16;9.70;99.90
6666;DHT22;3369;49.906;8.598;2022-10-20T00:55:45;9.70;99.90
6666;DHT22;3369;49.906;8.598;2022-10-20T00:58:12;9.70;99.90
6666;DHT22;3369;49.906;8.598;2022-10-20T01:00:39;9.70;99.90
6666;DHT22;3369;49.906;8.598;2022-10-20T01:03:07;9.60;99.90
6666;DHT22;3369;49.906;8.598;2022-10-20T01:05:37;9.60;99.90
6666;DHT22;3369;49.906;8.598;2022-10-20T01:08:03;9.50;99.90
6666;DHT22;3369;49.906;8.598;2022-10-20T01:10:38;9.50;99.90
6666;DHT22;3369;49.906;8.598;2022-10-20T01:13:14;9.50;99.90
6666;DHT22;3369;49.906;8.598;2022-10-20T01:16:08;9.50;99.90
6666;DHT22;3369;49.906;8.598;2022-10-20T01:21:42;9.40;99.90
6666;DHT22;3369;49.906;8.598;2022-10-20T01:30:18;9.30;99.90
6666;DHT22;3369;49.906;8.598;2022-10-20T01:33:11;9.40;99.90
6666;DHT22;3369;49.906;8.598;2022-10-20T01:41:11;9.30;99.90
6666;DHT22;3369;49.906;8.598;2022-10-20T01:43:40;9.30;99.90
6666;DHT22;3369;49.906;8.598;2022-10-20T01:46:08;9.20;99.90
6666;DHT22;3369;49.906;8.598;2022-10-20T01:48:35;9.20;99.90
6666;DHT22;3369;49.906;8.598;2022-10-20T01:51:03;9.20;99.90
6666;DHT22;3369;49.906;8.598;2022-10-20T01:53:29;9.20;99.90
6666;DHT22;3369;49.906;8.598;2022-10-20T01:55:56;9.10;99.90
6666;DHT22;3369;49.906;8.598;2022-10-20T02:04:11;9.10;99.90
6666;DHT22;3369;49.906;8.598;2022-10-20T02:06:55;9.10;99.90
6666;DHT22;3369;49.906;8.598;2022-10-20T02:09:39;9.10;99.90
6666;DHT22;3369;49.906;8.598;2022-10-20T02:12:06;9.10;99.90
6666;DHT22;3369;49.906;8.598;2022-10-20T02:14:35;9.00;99.90
6666;DHT22;3369;49.906;8.598;2022-10-20T02:17:07;9.10;99.90
6666;DHT22;3369;49.906;8.598;2022-10-20T02:38:40;8.80;99.90
6666;DHT22;3369;49.906;8.598;2022-10-20T02:41:06;8.80;99.90
6666;DHT22;3369;49.906;8.598;2022-10-20T02:43:31;8.80;99.90
6666;DHT22;3369;49.906;8.598;2022-10-20T02:45:57;8.80;99.90
6666;DHT22;3369;49.906;8.598;2022-10-20T02:48:23;8.70;99.90
6666;DHT22;3369;49.906;8.598;2022-10-20T02:50:48;8.70;99.90
6666;DHT22;3369;49.906;8.598;2022-10-20T02:53:14;8.70;99.90
6666;DHT22;3369;49.906;8.598;2022-10-20T02:55:41;8.70;99.90
6666;DHT22;3369;49.906;8.598;2022-10-20T02:58:07;8.70;99.90
6666;DHT22;3369;49.906;8.598;2022-10-20T03:00:33;8.70;99.90
6666;DHT22;3369;49.906;8.598;2022-10-20T03:02:58;8.80;99.90
6666;DHT22;3369;49.906;8.598;2022-10-20T03:05:24;8.80;99.90
6666;DHT22;3369;49.906;8.598;2022-10-20T03:07:52;8.80;99.90
6666;DHT22;3369;49.906;8.598;2022-10-20T03:10:18;8.80;99.90
6666;DHT22;3369;49.906;8.598;2022-10-20T03:12:44;8.80;99.90
6666;DHT22;3369;49.906;8.598;2022-10-20T03:15:10;8.80;99.90
6666;DHT22;3369;49.906;8.598;2022-10-20T03:17:35;8.80;99.90
6666;DHT22;3369;49.906;8.598;2022-10-20T03:20:02;8.80;99.90
6666;DHT22;3369;49.906;8.598;2022-10-20T03:22:28;8.80;99.90
6666;DHT22;3369;49.906;8.598;2022-10-20T03:24:53;8.80;99.90
6666;DHT22;3369;49.906;8.598;2022-10-20T03:27:19;8.80;99.90
6666;DHT22;3369;49.906;8.598;2022-10-20T03:29:45;8.80;99.90
6666;DHT22;3369;49.906;8.598;2022-10-20T03:32:10;8.80;99.90
6666;DHT22;3369;49.906;8.598;2022-10-20T03:34:36;8.80;99.90
6666;DHT22;3369;49.906;8.598;2022-10-20T03:37:02;8.80;99.90
6666;DHT22;3369;49.906;8.598;2022-10-20T03:39:27;8.80;99.90
6666;DHT22;3369;49.906;8.598;2022-10-20T03:41:53;8.80;99.90
6666;DHT22;3369;49.906;8.598;2022-10-20T03:44:19;8.80;99.90
6666;DHT22;3369;49.906;8.598;2022-10-20T03:46:44;8.70;99.90
6666;DHT22;3369;49.906;8.598;2022-10-20T03:49:10;8.70;99.90
6666;DHT22;3369;49.906;8.598;2022-10-20T03:51:36;8.70;99.90
6666;DHT22;3369;49.906;8.598;2022-10-20T03:54:02;8.70;99.90
6666;DHT22;3369;49.906;8.598;2022-10-20T03:56:27;8.70;99.90
6666;DHT22;3369;49.906;8.598;2022-10-20T03:58:53;8.70;99.90
6666;DHT22;3369;49.906;8.598;2022-10-20T04:01:21;8.70;99.90
6666;DHT22;3369;49.906;8.598;2022-10-20T04:03:48;8.70;99.90
6666;DHT22;3369;49.906;8.598;2022-10-20T04:06:14;8.70;99.90
6666;DHT22;3369;49.906;8.598;2022-10-20T04:08:40;8.70;99.90
6666;DHT22;3369;49.906;8.598;2022-10-20T04:11:06;8.70;99.90
6666;DHT22;3369;49.906;8.598;2022-10-20T04:13:32;8.70;99.90
6666;DHT22;3369;49.906;8.598;2022-10-20T04:15:58;8.70;99.90
6666;DHT22;3369;49.906;8.598;2022-10-20T04:18:24;8.70;99.90
6666;DHT22;3369;49.906;8.598;2022-10-20T04:20:50;8.70;99.90
6666;DHT22;3369;49.906;8.598;2022-10-20T04:23:15;8.70;99.90
6666;DHT22;3369;49.906;8.598;2022-10-20T04:25:42;8.80;99.90
6666;DHT22;3369;49.906;8.598;2022-10-20T04:28:28;8.80;99.90
6666;DHT22;3369;49.906;8.598;2022-10-20T04:30:54;8.80;99.90
6666;DHT22;3369;49.906;8.598;2022-10-20T04:33:21;8.80;99.90
6666;DHT22;3369;49.906;8.598;2022-10-20T04:35:47;8.80;99.90
6666;DHT22;3369;49.906;8.598;2022-10-20T04:38:12;8.80;99.90
6666;DHT22;3369;49.906;8.598;2022-10-20T04:40:38;8.80;99.90
6666;DHT22;3369;49.906;8.598;2022-10-20T04:43:04;8.90;99.90
6666;DHT22;3369;49.906;8.598;2022-10-20T04:45:29;8.90;99.90
6666;DHT22;3369;49.906;8.598;2022-10-20T04:47:55;8.90;99.90
6666;DHT22;3369;49.906;8.598;2022-10-20T04:50:21;8.90;99.90
6666;DHT22;3369;49.906;8.598;2022-10-20T04:52:46;9.00;99.90
6666;DHT22;3369;49.906;8.598;2022-10-20T04:55:12;9.00;99.90
6666;DHT22;3369;49.906;8.598;2022-10-20T04:57:38;9.00;99.90
6666;DHT22;3369;49.906;8.598;2022-10-20T05:00:04;9.00;99.90
6666;DHT22;3369;49.906;8.598;2022-10-20T05:02:29;9.00;99.90
6666;DHT22;3369;49.906;8.598;2022-10-20T05:04:55;8.90;99.90
6666;DHT22;3369;49.906;8.598;2022-10-20T05:07:21;8.90;99.90
6666;DHT22;3369;49.906;8.598;2022-10-20T05:09:47;8.90;99.90
6666;DHT22;3369;49.906;8.598;2022-10-20T05:12:13;8.90;99.90
6666;DHT22;3369;49.906;8.598;2022-10-20T05:14:38;8.90;99.90
6666;DHT22;3369;49.906;8.598;2022-10-20T05:17:04;8.90;99.90
6666;DHT22;3369;49.906;8.598;2022-10-20T05:19:30;9.00;99.90
6666;DHT22;3369;49.906;8.598;2022-10-20T05:21:55;9.00;99.90
6666;DHT22;3369;49.906;8.598;2022-10-20T05:24:21;9.10;99.90
6666;DHT22;3369;49.906;8.598;2022-10-20T05:26:47;9.10;99.90
6666;DHT22;3369;49.906;8.598;2022-10-20T05:29:13;9.10;99.90
6666;DHT22;3369;49.906;8.598;2022-10-20T05:31:41;9.20;99.90
6666;DHT22;3369;49.906;8.598;2022-10-20T05:34:07;9.20;99.90
6666;DHT22;3369;49.906;8.598;2022-10-20T05:36:33;9.20;99.90
6666;DHT22;3369;49.906;8.598;2022-10-20T05:38:59;9.20;99.90
6666;DHT22;3369;49.906;8.598;2022-10-20T05:41:27;9.20;99.90
6666;DHT22;3369;49.906;8.598;2022-10-20T05:43:55;9.20;99.90
6666;DHT22;3369;49.906;8.598;2022-10-20T05:46:22;9.20;99.90
6666;DHT22;3369;49.906;8.598;2022-10-20T05:48:50;9.20;99.90
6666;DHT22;3369;49.906;8.598;2022-10-20T05:51:18;9.20;99.90
6666;DHT22;3369;49.906;8.598;2022-10-20T05:53:45;9.30;99.90
6666;DHT22;3369;49.906;8.598;2022-10-20T05:56:16;9.30;99.90
6666;DHT22;3369;49.906;8.598;2022-10-20T05:58:42;9.30;99.90
6666;DHT22;3369;49.906;8.598;2022-10-20T06:03:41;9.30;99.90
6666;DHT22;3369;49.906;8.598;2022-10-20T06:06:07;9.30;99.90
6666;DHT22;3369;49.906;8.598;2022-10-20T06:08:33;9.30;99.90
6666;DHT22;3369;49.906;8.598;2022-10-20T06:11:07;9.30;99.90
6666;DHT22;3369;49.906;8.598;2022-10-20T06:13:33;9.30;99.90
6666;DHT22;3369;49.906;8.598;2022-10-20T06:16:03;9.30;99.90
6666;DHT22;3369;49.906;8.598;2022-10-20T06:18:30;9.30;99.90
6666;DHT22;3369;49.906;8.598;2022-10-20T06:21:01;9.40;99.90
6666;DHT22;3369;49.906;8.598;2022-10-20T06:23:26;9.40;99.90
6666;DHT22;3369;49.906;8.598;2022-10-20T06:25:52;9.40;99.90
6666;DHT22;3369;49.906;8.598;2022-10-20T06:28:18;9.40;99.90
6666;DHT22;3369;49.906;8.598;2022-10-20T06:30:44;9.40;99.90
6666;DHT22;3369;49.906;8.598;2022-10-20T06:33:09;9.40;99.90
6666;DHT22;3369;49.906;8.598;2022-10-20T06:35:37;9.50;99.90
6666;DHT22;3369;49.906;8.598;2022-10-20T06:38:02;9.50;99.90
6666;DHT22;3369;49.906;8.598;2022-10-20T06:40:28;9.50;99.90
6666;DHT22;3369;49.906;8.598;2022-10-20T06:42:54;9.50;99.90
6666;DHT22;3369;49.906;8.598;2022-10-20T06:45:20;9.50;99.90
6666;DHT22;3369;49.906;8.598;2022-10-20T06:47:45;9.60;99.90
6666;DHT22;3369;49.906;8.598;2022-10-20T06:50:11;9.60;99.90
6666;DHT22;3369;49.906;8.598;2022-10-20T06:52:37;9.60;99.90
6666;DHT22;3369;49.906;8.598;2022-10-20T06:55:02;9.60;99.90
6666;DHT22;3369;49.906;8.598;2022-10-20T06:57:30;9.70;99.90
6666;DHT22;3369;49.906;8.598;2022-10-20T06:59:56;9.70;99.90
6666;DHT22;3369;49.906;8.598;2022-10-20T07:02:22;9.70;99.90
6666;DHT22;3369;49.906;8.598;2022-10-20T07:04:51;9.80;99.90
6666;DHT22;3369;49.906;8.598;2022-10-20T07:07:16;9.80;99.90
6666;DHT22;3369;49.906;8.598;2022-10-20T07:09:42;9.90;99.90
6666;DHT22;3369;49.906;8.598;2022-10-20T07:12:08;9.90;99.90
6666;DHT22;3369;49.906;8.598;2022-10-20T07:14:33;9.90;99.90
6666;DHT22;3369;49.906;8.598;2022-10-20T07:17:02;9.90;99.90
6666;DHT22;3369;49.906;8.598;2022-10-20T07:19:29;10.00;99.90
6666;DHT22;3369;49.906;8.598;2022-10-20T07:21:55;10.10;99.90
6666;DHT22;3369;49.906;8.598;2022-10-20T07:24:20;10.10;99.90
6666;DHT22;3369;49.906;8.598;2022-10-20T07:26:46;10.20;99.90
6666;DHT22;3369;49.906;8.598;2022-10-20T07:29:12;10.20;99.90
6666;DHT22;3369;49.906;8.598;2022-10-20T07:31:41;10.30;99.90
6666;DHT22;3369;49.906;8.598;2022-10-20T07:34:09;10.40;99.90
6666;DHT22;3369;49.906;8.598;2022-10-20T07:36:38;10.40;99.90
6666;DHT22;3369;49.906;8.598;2022-10-20T07:39:06;10.40;99.90
6666;DHT22;3369;49.906;8.598;2022-10-20T07:41:33;10.50;99.90
6666;DHT22;3369;49.906;8.598;2022-10-20T07:43:59;10.60;99.90
6666;DHT22;3369;49.906;8.598;2022-10-20T07:46:25;10.50;99.90
6666;DHT22;3369;49.906;8.598;2022-10-20T07:48:51;10.60;99.90
6666;DHT22;3369;49.906;8.598;2022-10-20T07:51:28;10.60;99.90
6666;DHT22;3369;49.906;8.598;2022-10-20T07:53:58;10.60;99.90
6666;DHT22;3369;49.906;8.598;2022-10-20T07:56:26;10.70;99.90
6666;DHT22;3369;49.906;8.598;2022-10-20T07:58:53;10.70;99.90
6666;DHT22;3369;49.906;8.598;2022-10-20T08:01:19;10.80;99.90
6666;DHT22;3369;49.906;8.598;2022-10-20T08:03:45;10.80;99.90
6666;DHT22;3369;49.906;8.598;2022-10-20T08:06:10;10.90;99.90
6666;DHT22;3369;49.906;8.598;2022-10-20T08:08:36;10.90;99.90
6666;DHT22;3369;49.906;8.598;2022-10-20T08:11:02;11.00;99.90
6666;DHT22;3369;49.906;8.598;2022-10-20T08:13:29;11.10;99.90
6666;DHT22;3369;49.906;8.598;2022-10-20T08:15:55;11.00;99.90
6666;DHT22;3369;49.906;8.598;2022-10-20T08:18:21;11.00;99.90
6666;DHT22;3369;49.906;8.598;2022-10-20T08:20:47;11.10;99.90
6666;DHT22;3369;49.906;8.598;2022-10-20T08:23:13;11.10;99.90
6666;DHT22;3369;49.906;8.598;2022-10-20T08:25:39;11.10;99.90
6666;DHT22;3369;49.906;8.598;2022-10-20T08:28:04;11.20;99.90
6666;DHT22;3369;49.906;8.598;2022-10-20T08:30:30;11.20;99.90
6666;DHT22;3369;49.906;8.598;2022-10-20T08:32:56;11.30;99.90
6666;DHT22;3369;49.906;8.598;2022-10-20T08:35:23;11.40;99.90
6666;DHT22;3369;49.906;8.598;2022-10-20T08:37:49;11.40;99.90
6666;DHT22;3369;49.906;8.598;2022-10-20T08:40:21;11.50;99.90
6666;DHT22;3369;49.906;8.598;2022-10-20T08:42:48;11.60;99.90
6666;DHT22;3369;49.906;8.598;2022-10-20T08:45:21;11.70;99.90
6666;DHT22;3369;49.906;8.598;2022-10-20T08:47:50;11.80;99.90
6666;DHT22;3369;49.906;8.598;2022-10-20T08:50:18;11.90;99.90
6666;DHT22;3369;49.906;8.598;2022-10-20T08:52:45;12.00;99.90
6666;DHT22;3369;49.906;8.598;2022-10-20T08:55:21;12.00;99.90
6666;DHT22;3369;49.906;8.598;2022-10-20T08:57:49;12.00;99.90
6666;DHT22;3369;49.906;8.598;2022-10-20T09:00:18;12.00;99.90
6666;DHT22;3369;49.906;8.598;2022-10-20T09:02:46;12.10;99.90
6666;DHT22;3369;49.906;8.598;2022-10-20T09:05:13;12.10;99.90
6666;DHT22;3369;49.906;8.598;2022-10-20T09:07:39;12.20;99.90
6666;DHT22;3369;49.906;8.598;2022-10-20T09:12:45;12.40;99.90
6666;DHT22;3369;49.906;8.598;2022-10-20T09:15:13;12.60;99.90
6666;DHT22;3369;49.906;8.598;2022-10-20T09:22:48;12.90;99.90
6666;DHT22;3369;49.906;8.598;2022-10-20T09:25:20;13.00;99.90
6666;DHT22;3369;49.906;8.598;2022-10-20T09:27:49;13.00;99.90
6666;DHT22;3369;49.906;8.598;2022-10-20T09:32:54;13.20;99.90
6666;DHT22;3369;49.906;8.598;2022-10-20T09:40:43;13.50;99.90
6666;DHT22;3369;49.906;8.598;2022-10-20T09:43:14;13.50;99.90
6666;DHT22;3369;49.906;8.598;2022-10-20T09:46:00;13.50;99.90
6666;DHT22;3369;49.906;8.598;2022-10-20T09:48:32;13.50;99.90
6666;DHT22;3369;49.906;8.598;2022-10-20T09:50:59;13.40;99.90
6666;DHT22;3369;49.906;8.598;2022-10-20T09:53:48;13.40;99.90
6666;DHT22;3369;49.906;8.598;2022-10-20T09:56:35;13.40;99.90
6666;DHT22;3369;49.906;8.598;2022-10-20T09:59:24;13.30;99.90
6666;DHT22;3369;49.906;8.598;2022-10-20T10:01:57;13.30;99.90
6666;DHT22;3369;49.906;8.598;2022-10-20T10:04:34;13.30;99.90
6666;DHT22;3369;49.906;8.598;2022-10-20T10:07:02;13.30;99.90
6666;DHT22;3369;49.906;8.598;2022-10-20T10:09:31;13.30;99.90
6666;DHT22;3369;49.906;8.598;2022-10-20T10:12:04;13.30;99.90
6666;DHT22;3369;49.906;8.598;2022-10-20T10:14:32;13.30;99.90
6666;DHT22;3369;49.906;8.598;2022-10-20T10:17:00;13.20;99.90
6666;DHT22;3369;49.906;8.598;2022-10-20T10:19:29;13.20;99.90
6666;DHT22;3369;49.906;8.598;2022-10-20T10:22:00;13.20;99.90
6666;DHT22;3369;49.906;8.598;2022-10-20T10:26:58;13.10;99.90
6666;DHT22;3369;49.906;8.598;2022-10-20T10:29:34;13.10;99.90
6666;DHT22;3369;49.906;8.598;2022-10-20T10:32:16;13.10;99.90
6666;DHT22;3369;49.906;8.598;2022-10-20T10:34:58;13.10;99.90
6666;DHT22;3369;49.906;8.598;2022-10-20T10:37:27;13.00;99.90
6666;DHT22;3369;49.906;8.598;2022-10-20T10:39:53;13.00;99.90
6666;DHT22;3369;49.906;8.598;2022-10-20T10:48:25;13.10;99.90
6666;DHT22;3369;49.906;8.598;2022-10-20T10:50:58;13.10;99.90
6666;DHT22;3369;49.906;8.598;2022-10-20T10:56:04;13.10;99.90
6666;DHT22;3369;49.906;8.598;2022-10-20T11:26:37;13.80;99.90
6666;DHT22;3369;49.906;8.598;2022-10-20T11:29:08;13.80;99.90
6666;DHT22;3369;49.906;8.598;2022-10-20T11:31:37;13.90;99.90
6666;DHT22;3369;49.906;8.598;2022-10-20T11:36:55;13.90;99.90
6666;DHT22;3369;49.906;8.598;2022-10-20T11:39:29;13.90;99.90
6666;DHT22;3369;49.906;8.598;2022-10-20T11:42:15;13.90;99.90
6666;DHT22;3369;49.906;8.598;2022-10-20T11:44:42;13.90;99.90
6666;DHT22;3369;49.906;8.598;2022-10-20T11:47:12;13.90;99.90
6666;DHT22;3369;49.906;8.598;2022-10-20T11:49:40;13.90;99.90
6666;DHT22;3369;49.906;8.598;2022-10-20T12:00:59;13.90;99.90
6666;DHT22;3369;49.906;8.598;2022-10-20T12:09:45;13.90;99.90
6666;DHT22;3369;49.906;8.598;2022-10-20T12:12:26;13.90;99.90
6666;DHT22;3369;49.906;8.598;2022-10-20T12:15:19;13.90;99.90
6666;DHT22;3369;49.906;8.598;2022-10-20T12:17:47;13.90;99.90
6666;DHT22;3369;49.906;8.598;2022-10-20T12:22:50;13.90;99.90
6666;DHT22;3369;49.906;8.598;2022-10-20T12:31:00;13.90;99.90
6666;DHT22;3369;49.906;8.598;2022-10-20T12:38:51;13.90;99.90
6666;DHT22;3369;49.906;8.598;2022-10-20T12:41:29;13.90;99.90
6666;DHT22;3369;49.906;8.598;2022-10-20T12:44:03;13.90;99.90
6666;DHT22;3369;49.906;8.598;2022-10-20T12:46:31;13.90;99.90
6666;DHT22;3369;49.906;8.598;2022-10-20T12:49:02;13.90;99.90
6666;DHT22;3369;49.906;8.598;2022-10-20T12:51:35;13.90;99.90
6666;DHT22;3369;49.906;8.598;2022-10-20T12:54:23;13.90;99.90
6666;DHT22;3369;49.906;8.598;2022-10-20T12:56:51;13.90;99.90
6666;DHT22;3369;49.906;8.598;2022-10-20T13:10:27;13.90;99.90
6666;DHT22;3369;49.906;8.598;2022-10-20T13:20:54;13.80;99.90
6666;DHT22;3369;49.906;8.598;2022-10-20T13:23:39;13.80;99.90
6666;DHT22;3369;49.906;8.598;2022-10-20T13:28:45;13.80;99.90
6666;DHT22;3369;49.906;8.598;2022-10-20T13:31:36;13.80;99.90
6666;DHT22;3369;49.906;8.598;2022-10-20T13:40:13;13.80;99.90
6666;DHT22;3369;49.906;8.598;2022-10-20T13:51:15;13.70;99.90
6666;DHT22;3369;49.906;8.598;2022-10-20T13:53:43;13.70;99.90
6666;DHT22;3369;49.906;8.598;2022-10-20T13:59:15;13.80;99.90
6666;DHT22;3369;49.906;8.598;2022-10-20T14:01:52;13.70;99.90
6666;DHT22;3369;49.906;8.598;2022-10-20T14:04:25;13.70;99.90
6666;DHT22;3369;49.906;8.598;2022-10-20T14:06:51;13.70;99.90
6666;DHT22;3369;49.906;8.598;2022-10-20T14:09:19;13.70;99.90
6666;DHT22;3369;49.906;8.598;2022-10-20T14:11:49;13.70;99.90
6666;DHT22;3369;49.906;8.598;2022-10-20T14:14:20;13.70;99.90
6666;DHT22;3369;49.906;8.598;2022-10-20T14:16:55;13.70;99.90
6666;DHT22;3369;49.906;8.598;2022-10-20T14:19:22;13.70;99.90
6666;DHT22;3369;49.906;8.598;2022-10-20T14:21:56;13.70;99.90
6666;DHT22;3369;49.906;8.598;2022-10-20T14:24:35;13.70;99.90
6666;DHT22;3369;49.906;8.598;2022-10-20T14:27:03;13.70;99.90
6666;DHT22;3369;49.906;8.598;2022-10-20T14:29:35;13.70;99.90
6666;DHT22;3369;49.906;8.598;2022-10-20T14:32:03;13.70;99.90
6666;DHT22;3369;49.906;8.598;2022-10-20T14:54:34;13.40;99.90
6666;DHT22;3369;49.906;8.598;2022-10-20T15:02:22;13.40;99.90
6666;DHT22;3369;49.906;8.598;2022-10-20T15:04:49;13.40;99.90
6666;DHT22;3369;49.906;8.598;2022-10-20T15:07:27;13.40;99.90
6666;DHT22;3369;49.906;8.598;2022-10-20T15:10:05;13.40;99.90
6666;DHT22;3369;49.906;8.598;2022-10-20T15:17:38;13.40;99.90
6666;DHT22;3369;49.906;8.598;2022-10-20T15:25:26;13.40;99.90
6666;DHT22;3369;49.906;8.598;2022-10-20T15:27:52;13.30;99.90
6666;DHT22;3369;49.906;8.598;2022-10-20T15:30:21;13.30;99.90
6666;DHT22;3369;49.906;8.598;2022-10-20T15:32:47;13.30;99.90
6666;DHT22;3369;49.906;8.598;2022-10-20T15:35:16;13.30;99.90
6666;DHT22;3369;49.906;8.598;2022-10-20T15:37:47;13.30;99.90
6666;DHT22;3369;49.906;8.598;2022-10-20T15:40:13;13.30;99.90
6666;DHT22;3369;49.906;8.598;2022-10-20T15:42:39;13.20;99.90
6666;DHT22;3369;49.906;8.598;2022-10-20T15:45:24;13.20;99.90
6666;DHT22;3369;49.906;8.598;2022-10-20T15:47:52;13.30;99.90
6666;DHT22;3369;49.906;8.598;2022-10-20T15:50:17;13.20;99.90
6666;DHT22;3369;49.906;8.598;2022-10-20T15:52:43;13.20;99.90
6666;DHT22;3369;49.906;8.598;2022-10-20T15:57:37;13.20;99.90
6666;DHT22;3369;49.906;8.598;2022-10-20T16:00:03;13.20;99.90
6666;DHT22;3369;49.906;8.598;2022-10-20T16:02:29;13.20;99.90
6666;DHT22;3369;49.906;8.598;2022-10-20T16:04:55;13.20;99.90
6666;DHT22;3369;49.906;8.598;2022-10-20T16:07:20;13.20;99.90
6666;DHT22;3369;49.906;8.598;2022-10-20T16:09:46;13.20;99.90
6666;DHT22;3369;49.906;8.598;2022-10-20T16:12:12;13.20;99.90
6666;DHT22;3369;49.906;8.598;2022-10-20T16:14:37;13.10;99.90
6666;DHT22;3369;49.906;8.598;2022-10-20T16:17:03;13.10;99.90
6666;DHT22;3369;49.906;8.598;2022-10-20T16:19:29;13.10;99.90
6666;DHT22;3369;49.906;8.598;2022-10-20T16:21:55;13.10;99.90
6666;DHT22;3369;49.906;8.598;2022-10-20T16:24:21;13.10;99.90
6666;DHT22;3369;49.906;8.598;2022-10-20T16:26:46;13.10;99.90
6666;DHT22;3369;49.906;8.598;2022-10-20T16:29:12;13.00;99.90
6666;DHT22;3369;49.906;8.598;2022-10-20T16:31:38;13.00;99.90
6666;DHT22;3369;49.906;8.598;2022-10-20T16:34:03;13.10;99.90
6666;DHT22;3369;49.906;8.598;2022-10-20T16:36:29;13.10;99.90
6666;DHT22;3369;49.906;8.598;2022-10-20T16:38:55;13.00;99.90
6666;DHT22;3369;49.906;8.598;2022-10-20T16:41:21;13.10;99.90
6666;DHT22;3369;49.906;8.598;2022-10-20T16:43:47;13.10;99.90
6666;DHT22;3369;49.906;8.598;2022-10-20T16:46:14;13.00;99.90
6666;DHT22;3369;49.906;8.598;2022-10-20T16:48:39;13.00;99.90
6666;DHT22;3369;49.906;8.598;2022-10-20T16:51:07;13.00;99.90
6666;DHT22;3369;49.906;8.598;2022-10-20T16:53:34;13.10;99.90
6666;DHT22;3369;49.906;8.598;2022-10-20T16:56:00;13.00;99.90
6666;DHT22;3369;49.906;8.598;2022-10-20T16:58:26;13.00;99.90
6666;DHT22;3369;49.906;8.598;2022-10-20T17:01:03;13.00;99.90
6666;DHT22;3369;49.906;8.598;2022-10-20T17:03:31;13.00;99.90
6666;DHT22;3369;49.906;8.598;2022-10-20T17:05:58;13.00;99.90
6666;DHT22;3369;49.906;8.598;2022-10-20T17:08:25;12.90;99.90
6666;DHT22;3369;49.906;8.598;2022-10-20T17:10:59;12.90;99.90
6666;DHT22;3369;49.906;8.598;2022-10-20T17:13:26;12.90;99.90
6666;DHT22;3369;49.906;8.598;2022-10-20T17:15:53;13.00;99.90
6666;DHT22;3369;49.906;8.598;2022-10-20T17:18:19;13.00;99.90
6666;DHT22;3369;49.906;8.598;2022-10-20T17:20:45;13.00;99.90
6666;DHT22;3369;49.906;8.598;2022-10-20T17:23:11;13.00;99.90
6666;DHT22;3369;49.906;8.598;2022-10-20T17:25:37;13.00;99.90
6666;DHT22;3369;49.906;8.598;2022-10-20T17:28:03;13.00;99.90
6666;DHT22;3369;49.906;8.598;2022-10-20T17:30:29;13.00;99.90
6666;DHT22;3369;49.906;8.598;2022-10-20T17:32:55;13.00;99.90
6666;DHT22;3369;49.906;8.598;2022-10-20T17:35:21;13.00;99.90
6666;DHT22;3369;49.906;8.598;2022-10-20T17:37:47;13.00;99.90
6666;DHT22;3369;49.906;8.598;2022-10-20T17:40:13;13.00;99.90
6666;DHT22;3369;49.906;8.598;2022-10-20T17:42:38;13.00;99.90
6666;DHT22;3369;49.906;8.598;2022-10-20T17:45:04;13.00;99.90
6666;DHT22;3369;49.906;8.598;2022-10-20T17:47:30;13.00;99.90
6666;DHT22;3369;49.906;8.598;2022-10-20T17:49:56;13.00;99.90
6666;DHT22;3369;49.906;8.598;2022-10-20T17:52:22;13.00;99.90
6666;DHT22;3369;49.906;8.598;2022-10-20T17:54:47;12.90;99.90
6666;DHT22;3369;49.906;8.598;2022-10-20T17:57:13;12.90;99.90
6666;DHT22;3369;49.906;8.598;2022-10-20T17:59:38;12.90;99.90
6666;DHT22;3369;49.906;8.598;2022-10-20T18:02:04;12.90;99.90
6666;DHT22;3369;49.906;8.598;2022-10-20T18:04:30;12.90;99.90
6666;DHT22;3369;49.906;8.598;2022-10-20T18:06:56;12.90;99.90
6666;DHT22;3369;49.906;8.598;2022-10-20T18:09:22;12.90;99.90
6666;DHT22;3369;49.906;8.598;2022-10-20T18:11:50;12.90;99.90
6666;DHT22;3369;49.906;8.598;2022-10-20T18:14:17;12.90;99.90
6666;DHT22;3369;49.906;8.598;2022-10-20T18:16:43;12.90;99.90
6666;DHT22;3369;49.906;8.598;2022-10-20T18:19:12;12.90;99.90
6666;DHT22;3369;49.906;8.598;2022-10-20T18:21:38;12.80;99.90
6666;DHT22;3369;49.906;8.598;2022-10-20T18:24:05;12.90;99.90
6666;DHT22;3369;49.906;8.598;2022-10-20T18:26:33;12.80;99.90
6666;DHT22;3369;49.906;8.598;2022-10-20T18:29:00;12.90;99.90
6666;DHT22;3369;49.906;8.598;2022-10-20T18:31:28;12.90;99.90
6666;DHT22;3369;49.906;8.598;2022-10-20T18:33:57;12.90;99.90
6666;DHT22;3369;49.906;8.598;2022-10-20T18:36:24;13.00;99.90
6666;DHT22;3369;49.906;8.598;2022-10-20T18:38:50;13.00;99.90
6666;DHT22;3369;49.906;8.598;2022-10-20T18:41:26;13.00;99.90
6666;DHT22;3369;49.906;8.598;2022-10-20T18:44:02;13.00;99.90
6666;DHT22;3369;49.906;8.598;2022-10-20T18:46:30;13.00;99.90
6666;DHT22;3369;49.906;8.598;2022-10-20T18:48:57;13.00;99.90
6666;DHT22;3369;49.906;8.598;2022-10-20T18:51:23;13.00;99.90
6666;DHT22;3369;49.906;8.598;2022-10-20T18:53:55;13.00;99.90
6666;DHT22;3369;49.906;8.598;2022-10-20T18:56:23;13.00;99.90
6666;DHT22;3369;49.906;8.598;2022-10-20T18:58:54;13.00;99.90
6666;DHT22;3369;49.906;8.598;2022-10-20T19:01:23;13.00;99.90
6666;DHT22;3369;49.906;8.598;2022-10-20T19:03:51;13.00;99.90
6666;DHT22;3369;49.906;8.598;2022-10-20T19:06:28;13.00;99.90
6666;DHT22;3369;49.906;8.598;2022-10-20T19:08:59;12.90;99.90
6666;DHT22;3369;49.906;8.598;2022-10-20T19:11:27;12.90;99.90
6666;DHT22;3369;49.906;8.598;2022-10-20T19:13:53;12.90;99.90
6666;DHT22;3369;49.906;8.598;2022-10-20T19:16:22;12.80;99.90
6666;DHT22;3369;49.906;8.598;2022-10-20T19:18:51;12.70;99.90
6666;DHT22;3369;49.906;8.598;2022-10-20T19:21:18;12.70;99.90
6666;DHT22;3369;49.906;8.598;2022-10-20T19:23:46;12.70;99.90
6666;DHT22;3369;49.906;8.598;2022-10-20T19:28:41;12.60;99.90
6666;DHT22;3369;49.906;8.598;2022-10-20T19:31:22;12.60;99.90
6666;DHT22;3369;49.906;8.598;2022-10-20T19:33:51;12.50;99.90
6666;DHT22;3369;49.906;8.598;2022-10-20T19:36:17;12.50;99.90
6666;DHT22;3369;49.906;8.598;2022-10-20T19:38:44;12.50;99.90
6666;DHT22;3369;49.906;8.598;2022-10-20T19:41:10;12.50;99.90
6666;DHT22;3369;49.906;8.598;2022-10-20T19:43:36;12.50;99.90